Time;durP1;ratioP1;P1;durP2;ratioP2;P2;SDS_P1;SDS_P2;PMS_P1;PMS_P2;Temp;Humidity;BMP_temperature;BMP_pressure;BME280_temperature;BME280_humidity;BME280_pressure;Samples;Min_cycle;Max_cycle;Signal;HPM_P1;HPM_P2
2022/05/28 00:02:11;;;;;;;5.28;1.70;;;9.20;20.10;;;;;;5004628;28;34475;-78
2022/05/28 00:04:37;;;;;;;2.75;1.50;;;9.20;20.10;;;;;;5008025;28;34216;-78
2022/05/28 00:07:04;;;;;;;4.15;1.70;;;9.20;20.20;;;;;;5020493;28;34344;-78
2022/05/28 00:09:31;;;;;;;3.53;1.50;;;9.10;20.30;;;;;;4984008;28;34718;-80
2022/05/28 00:11:57;;;;;;;4.68;1.38;;;9.10;20.40;;;;;;5011299;28;34161;-77
2022/05/28 00:14:24;;;;;;;3.58;1.25;;;9.10;20.40;;;;;;5009965;28;35840;-78
2022/05/28 00:16:50;;;;;;;2.33;1.17;;;9.00;20.40;;;;;;5009019;28;34217;-79
2022/05/28 00:19:16;;;;;;;3.67;1.73;;;9.00;20.50;;;;;;5009414;28;34397;-79
2022/05/28 00:21:43;;;;;;;2.92;1.75;;;9.00;20.60;;;;;;5002006;28;34344;-80
2022/05/28 00:24:10;;;;;;;7.18;1.95;;;8.90;20.60;;;;;;5007471;28;36378;-80
2022/05/28 00:26:36;;;;;;;2.47;1.40;;;8.90;20.70;;;;;;4990008;28;34198;-77
2022/05/28 00:29:02;;;;;;;8.07;1.77;;;8.90;20.80;;;;;;5021094;28;34182;-78
2022/05/28 00:31:28;;;;;;;3.33;1.55;;;8.80;20.70;;;;;;5000179;28;34379;-78
2022/05/28 00:33:55;;;;;;;4.97;1.38;;;8.80;20.80;;;;;;5026537;28;34332;-79
2022/05/28 00:36:22;;;;;;;2.35;1.30;;;8.80;20.80;;;;;;4997609;28;34722;-78
2022/05/28 00:38:48;;;;;;;4.18;1.38;;;8.70;20.90;;;;;;5002651;28;34265;-80
2022/05/28 00:41:15;;;;;;;2.35;1.38;;;8.70;21.00;;;;;;4971347;28;34893;-81
2022/05/28 00:43:44;;;;;;;4.28;1.30;;;8.70;21.10;;;;;;4985883;28;36114;-80
2022/05/28 00:46:22;;;;;;;1.85;1.40;;;8.70;21.30;;;;;;5001276;28;34272;-79
2022/05/28 00:48:51;;;;;;;1.90;1.20;;;8.60;21.20;;;;;;4987950;28;34142;-79
2022/05/28 00:51:25;;;;;;;4.45;1.67;;;8.60;21.30;;;;;;4988763;28;34836;-80
2022/05/28 00:53:54;;;;;;;4.50;1.38;;;8.50;21.90;;;;;;4988669;28;36602;-79
2022/05/28 00:56:22;;;;;;;2.92;1.50;;;8.50;21.30;;;;;;4958622;28;34268;-78
2022/05/28 00:58:49;;;;;;;3.03;1.20;;;8.40;21.20;;;;;;4976976;28;34250;-78
2022/05/28 01:01:16;;;;;;;5.35;1.40;;;8.40;21.30;;;;;;5002792;28;34251;-78
2022/05/28 01:03:59;;;;;;;3.75;1.40;;;8.40;21.30;;;;;;4970602;28;36326;-81
2022/05/28 01:06:44;;;;;;;8.15;1.30;;;8.30;23.30;;;;;;4987593;28;34242;-81
2022/05/28 01:09:21;;;;;;;3.40;1.45;;;8.30;22.40;;;;;;4986121;28;34191;-82
2022/05/28 01:12:06;;;;;;;1.98;1.20;;;8.20;22.00;;;;;;4985345;28;34259;-79
2022/05/28 01:14:39;;;;;;;3.75;1.30;;;8.20;23.70;;;;;;4970096;28;36807;-79
2022/05/28 01:17:17;;;;;;;2.65;1.52;;;8.10;21.80;;;;;;4992776;28;34220;-77
2022/05/28 01:20:08;;;;;;;3.58;1.45;;;8.00;22.00;;;;;;4976224;28;34742;-78
2022/05/28 01:22:58;;;;;;;3.80;1.25;;;8.00;22.80;;;;;;4958364;28;34464;-79
2022/05/28 01:25:42;;;;;;;3.13;1.50;;;8.00;22.70;;;;;;4984515;28;35788;-79
2022/05/28 01:28:14;;;;;;;2.65;1.35;;;7.90;22.10;;;;;;4986817;28;34395;-80
2022/05/28 01:30:42;;;;;;;2.30;1.15;;;7.80;21.90;;;;;;4969930;28;34536;-79
2022/05/28 01:33:11;;;;;;;2.17;1.35;;;7.80;21.90;;;;;;5000413;28;34262;-79
2022/05/28 01:35:38;;;;;;;1.73;1.27;;;7.70;21.80;;;;;;5001447;28;34474;-78
2022/05/28 01:38:06;;;;;;;3.40;1.75;;;7.70;22.00;;;;;;4986176;28;34092;-80
2022/05/28 01:40:34;;;;;;;2.78;1.10;;;7.70;22.10;;;;;;4991233;28;34332;-78
2022/05/28 01:43:04;;;;;;;4.20;1.13;;;7.60;22.10;;;;;;4988220;28;34106;-78
2022/05/28 01:45:32;;;;;;;3.97;1.60;;;7.50;22.50;;;;;;4989122;28;35546;-78
2022/05/28 01:48:01;;;;;;;4.43;1.35;;;7.40;22.30;;;;;;4996423;28;34216;-79
2022/05/28 01:50:32;;;;;;;2.85;1.40;;;7.40;22.50;;;;;;4988908;28;34249;-79
2022/05/28 01:53:02;;;;;;;2.55;1.17;;;7.40;22.80;;;;;;5022863;28;34391;-79
2022/05/28 01:55:29;;;;;;;1.67;1.33;;;7.40;22.60;;;;;;5008703;28;35913;-79
2022/05/28 01:57:55;;;;;;;3.30;1.70;;;7.40;22.60;;;;;;5022324;28;34172;-79
2022/05/28 02:00:21;;;;;;;3.60;1.48;;;7.30;22.70;;;;;;5007939;28;34102;-78
2022/05/28 02:02:47;;;;;;;2.80;1.40;;;7.30;22.70;;;;;;4961683;28;34421;-78
2022/05/28 02:05:13;;;;;;;2.92;1.50;;;7.30;22.70;;;;;;4993819;28;35819;-79
2022/05/28 02:07:39;;;;;;;2.70;1.30;;;7.20;22.80;;;;;;4997885;28;34209;-79
2022/05/28 02:10:10;;;;;;;1.85;1.20;;;7.20;22.90;;;;;;4990160;28;34161;-81
2022/05/28 02:12:57;;;;;;;4.05;1.60;;;7.20;23.20;;;;;;4995793;28;34182;-79
2022/05/28 02:15:43;;;;;;;4.28;1.30;;;7.10;23.60;;;;;;4996243;28;35903;-81
2022/05/28 02:18:25;;;;;;;4.40;1.67;;;7.10;25.10;;;;;;5002069;28;34202;-80
2022/05/28 02:21:12;;;;;;;0.93;0.82;;;7.10;24.80;;;;;;5008301;28;34301;-79
2022/05/28 02:23:45;;;;;;;4.43;1.35;;;7.00;23.40;;;;;;5010039;28;34266;-80
2022/05/28 02:26:20;;;;;;;1.40;1.15;;;7.00;23.50;;;;;;4999845;28;35955;-79
2022/05/28 02:28:47;;;;;;;2.80;1.35;;;7.00;24.00;;;;;;5007644;28;34336;-79
2022/05/28 02:31:18;;;;;;;1.42;1.25;;;7.00;23.30;;;;;;5004707;28;34478;-78
2022/05/28 02:33:45;;;;;;;2.70;1.20;;;6.90;23.60;;;;;;4997873;28;34201;-79
2022/05/28 02:36:13;;;;;;;1.50;1.10;;;6.90;23.40;;;;;;5007773;28;35716;-79
2022/05/28 02:38:39;;;;;;;3.78;1.35;;;6.90;23.50;;;;;;4989531;28;34485;-79
2022/05/28 02:41:05;;;;;;;2.17;1.38;;;6.90;23.50;;;;;;5005760;28;34886;-79
2022/05/28 02:43:31;;;;;;;1.77;1.23;;;6.80;24.20;;;;;;4998751;28;34559;-79
2022/05/28 02:46:00;;;;;;;2.20;1.20;;;6.90;23.60;;;;;;4997222;28;35558;-79
2022/05/28 02:48:27;;;;;;;2.90;1.25;;;6.80;23.70;;;;;;4990014;28;34155;-79
2022/05/28 02:50:53;;;;;;;1.35;1.15;;;6.90;23.80;;;;;;5000659;28;34552;-79
2022/05/28 02:53:19;;;;;;;2.67;1.52;;;6.80;23.70;;;;;;4991035;28;34101;-79
2022/05/28 02:55:45;;;;;;;2.13;1.45;;;6.80;23.70;;;;;;5012627;28;35148;-79
2022/05/28 02:58:12;;;;;;;3.20;1.05;;;6.80;23.80;;;;;;4990764;28;34390;-79
2022/05/28 03:00:38;;;;;;;3.20;1.52;;;6.80;24.00;;;;;;5003476;28;35283;-79
2022/05/28 03:03:05;;;;;;;2.22;1.35;;;6.80;23.80;;;;;;5013116;28;34369;-79
2022/05/28 03:05:30;;;;;;;2.25;1.00;;;6.70;23.80;;;;;;5002901;28;36734;-78
2022/05/28 03:07:56;;;;;;;1.40;1.05;;;6.80;24.00;;;;;;5008245;28;34167;-79
2022/05/28 03:10:22;;;;;;;1.80;1.10;;;6.70;24.00;;;;;;4972077;28;34301;-78
2022/05/28 03:12:48;;;;;;;1.67;1.30;;;6.70;24.00;;;;;;5005168;28;34174;-79
2022/05/28 03:15:14;;;;;;;1.80;1.00;;;6.70;23.90;;;;;;4994885;28;35581;-79
2022/05/28 03:17:40;;;;;;;4.80;1.40;;;6.70;24.00;;;;;;5008639;28;34351;-79
2022/05/28 03:20:07;;;;;;;3.03;1.20;;;6.60;24.00;;;;;;5013769;28;34522;-80
2022/05/28 03:22:33;;;;;;;3.03;1.10;;;6.60;24.20;;;;;;4994607;28;34131;-79
2022/05/28 03:24:58;;;;;;;1.35;0.80;;;6.60;24.20;;;;;;5007959;28;36415;-79
2022/05/28 03:27:24;;;;;;;1.88;1.48;;;6.60;24.20;;;;;;5012071;28;34432;-78
2022/05/28 03:29:51;;;;;;;3.63;1.40;;;6.60;24.30;;;;;;5009403;28;34171;-79
2022/05/28 03:32:17;;;;;;;3.60;1.20;;;6.50;24.20;;;;;;5007800;28;34421;-79
2022/05/28 03:34:43;;;;;;;3.50;1.10;;;6.50;24.30;;;;;;4996780;28;35576;-79
2022/05/28 03:37:09;;;;;;;1.10;0.90;;;6.50;24.40;;;;;;5019984;28;34178;-77
2022/05/28 03:39:35;;;;;;;1.83;1.38;;;6.50;24.40;;;;;;4994052;28;34396;-77
2022/05/28 03:42:01;;;;;;;1.60;1.05;;;6.50;24.40;;;;;;4990233;28;35636;-77
2022/05/28 03:44:27;;;;;;;1.85;1.27;;;6.50;24.40;;;;;;4988907;28;34286;-78
2022/05/28 03:46:52;;;;;;;6.47;1.27;;;6.50;24.60;;;;;;5000983;28;34387;-78
2022/05/28 03:49:27;;;;;;;3.63;1.25;;;6.40;24.30;;;;;;5003516;28;34461;-77
2022/05/28 03:51:55;;;;;;;2.60;1.23;;;6.40;25.00;;;;;;4990805;28;34199;-78
2022/05/28 03:54:21;;;;;;;2.35;1.20;;;6.40;24.40;;;;;;4985221;28;36550;-77
2022/05/28 03:56:48;;;;;;;3.42;1.50;;;6.40;24.50;;;;;;4977890;28;34174;-77
2022/05/28 03:59:14;;;;;;;2.72;1.48;;;6.40;24.80;;;;;;4967430;28;34237;-77
2022/05/28 04:01:41;;;;;;;2.40;1.20;;;6.50;24.70;;;;;;4959351;28;34335;-77
2022/05/28 04:04:07;;;;;;;2.88;1.40;;;6.50;24.60;;;;;;4983143;28;35648;-77
2022/05/28 04:06:36;;;;;;;1.90;1.10;;;6.50;24.70;;;;;;4987595;28;34512;-79
2022/05/28 04:09:03;;;;;;;2.88;1.60;;;6.50;24.80;;;;;;4989263;28;34156;-77
2022/05/28 04:11:29;;;;;;;1.52;1.10;;;6.50;24.70;;;;;;4983523;28;34409;-77
2022/05/28 04:13:55;;;;;;;3.78;1.33;;;6.60;24.60;;;;;;5016797;28;36758;-77
2022/05/28 04:16:22;;;;;;;2.08;1.30;;;6.60;24.50;;;;;;5014519;28;34359;-77
2022/05/28 04:18:48;;;;;;;1.90;1.30;;;6.60;24.60;;;;;;4985964;28;34191;-78
2022/05/28 04:21:15;;;;;;;3.95;1.30;;;6.60;24.70;;;;;;4989735;28;34060;-78
2022/05/28 04:23:41;;;;;;;1.30;1.20;;;6.60;24.70;;;;;;4978885;28;35987;-78
2022/05/28 04:26:07;;;;;;;2.60;1.30;;;6.70;24.70;;;;;;4993652;28;34531;-77
2022/05/28 04:28:33;;;;;;;2.40;1.30;;;6.70;24.60;;;;;;4977913;28;34387;-78
2022/05/28 04:30:59;;;;;;;2.83;1.13;;;6.70;24.80;;;;;;4986444;28;34141;-78
2022/05/28 04:33:24;;;;;;;2.33;1.20;;;6.70;24.70;;;;;;4987853;28;35777;-77
2022/05/28 04:35:50;;;;;;;2.13;1.25;;;6.80;24.60;;;;;;4986493;28;34127;-77
2022/05/28 04:38:16;;;;;;;1.38;0.85;;;6.70;24.60;;;;;;4976661;28;34206;-78
2022/05/28 04:40:42;;;;;;;3.05;1.25;;;6.80;24.70;;;;;;4990684;28;34103;-78
2022/05/28 04:43:08;;;;;;;2.88;1.42;;;6.80;24.70;;;;;;4987565;28;35698;-78
2022/05/28 04:45:34;;;;;;;1.63;1.10;;;6.80;24.80;;;;;;4992045;28;34332;-78
2022/05/28 04:48:00;;;;;;;2.63;1.15;;;6.90;25.00;;;;;;4986730;28;34369;-78
2022/05/28 04:50:26;;;;;;;3.30;1.60;;;6.90;24.80;;;;;;4998007;28;34257;-78
2022/05/28 04:52:52;;;;;;;2.78;1.40;;;7.00;24.80;;;;;;4984622;28;35917;-78
2022/05/28 04:55:19;;;;;;;2.20;1.30;;;7.00;24.80;;;;;;5002109;28;34300;-78
2022/05/28 04:57:45;;;;;;;1.20;1.10;;;7.10;24.90;;;;;;4990049;28;34415;-78
2022/05/28 05:00:16;;;;;;;2.53;1.23;;;7.20;24.80;;;;;;5005620;28;34561;-78
2022/05/28 05:02:42;;;;;;;2.97;1.23;;;7.30;25.10;;;;;;4978955;28;35857;-78
2022/05/28 05:05:09;;;;;;;2.17;1.27;;;7.30;24.90;;;;;;5001867;28;34338;-78
2022/05/28 05:07:35;;;;;;;3.25;1.13;;;7.50;24.70;;;;;;4990512;28;34340;-78
2022/05/28 05:10:03;;;;;;;1.83;1.52;;;7.60;24.50;;;;;;4998156;28;34298;-78
2022/05/28 05:12:28;;;;;;;2.90;1.10;;;7.70;24.40;;;;;;5000647;28;35927;-78
2022/05/28 05:14:54;;;;;;;4.80;1.70;;;7.90;24.30;;;;;;5001195;28;34536;-78
2022/05/28 05:17:20;;;;;;;2.67;1.10;;;8.30;24.00;;;;;;4974183;28;34270;-78
2022/05/28 05:19:46;;;;;;;1.83;1.27;;;9.00;23.00;;;;;;5003858;28;34282;-78
2022/05/28 05:22:12;;;;;;;2.38;1.50;;;9.80;21.60;;;;;;4979518;28;35662;-78
2022/05/28 05:24:38;;;;;;;1.85;1.38;;;10.80;20.00;;;;;;5000895;28;34233;-79
2022/05/28 05:27:05;;;;;;;8.15;1.50;;;11.70;18.80;;;;;;4987098;28;34494;-79
2022/05/28 05:29:31;;;;;;;3.75;1.67;;;12.60;17.60;;;;;;5010135;28;34130;-79
2022/05/28 05:31:57;;;;;;;3.92;1.52;;;13.40;16.50;;;;;;4983076;28;36069;-79
2022/05/28 05:34:23;;;;;;;3.53;1.58;;;14.00;15.50;;;;;;5006491;28;34182;-77
2022/05/28 05:36:49;;;;;;;4.13;1.73;;;14.40;14.60;;;;;;5007817;28;34443;-77
2022/05/28 05:39:15;;;;;;;3.55;1.75;;;14.80;14.10;;;;;;4981742;28;34163;-77
2022/05/28 05:41:42;;;;;;;3.83;1.20;;;15.30;14.00;;;;;;4983639;28;36013;-76
2022/05/28 05:44:09;;;;;;;2.17;1.30;;;15.70;13.30;;;;;;4988927;28;34525;-77
2022/05/28 05:46:35;;;;;;;3.35;1.35;;;16.20;12.90;;;;;;4988617;28;34298;-78
2022/05/28 05:49:03;;;;;;;3.08;1.27;;;16.60;12.20;;;;;;5002985;28;34228;-78
2022/05/28 05:51:29;;;;;;;2.35;1.27;;;17.00;11.90;;;;;;4985150;28;36452;-79
2022/05/28 05:53:55;;;;;;;3.40;1.20;;;17.40;11.50;;;;;;4981345;28;34395;-78
2022/05/28 05:56:21;;;;;;;2.95;1.35;;;17.50;11.20;;;;;;4994872;28;34398;-77
2022/05/28 05:58:47;;;;;;;3.78;1.60;;;17.80;10.90;;;;;;4948220;28;34239;-78
2022/05/28 06:01:13;;;;;;;3.38;1.33;;;18.10;10.50;;;;;;4989204;28;36176;-80
2022/05/28 06:03:44;;;;;;;3.58;1.40;;;18.50;10.40;;;;;;5002153;28;34289;-77
2022/05/28 06:06:14;;;;;;;7.38;1.58;;;18.80;9.90;;;;;;4999294;28;34369;-78
2022/05/28 06:08:40;;;;;;;4.75;1.45;;;19.30;9.30;;;;;;4992580;28;34408;-77
2022/05/28 06:11:06;;;;;;;4.20;1.60;;;19.50;9.40;;;;;;4986025;28;36409;-78
2022/05/28 06:13:33;;;;;;;3.30;1.50;;;19.80;9.00;;;;;;4998215;28;34452;-79
2022/05/28 06:16:00;;;;;;;3.28;1.38;;;19.90;8.80;;;;;;4987396;28;34198;-82
2022/05/28 06:18:26;;;;;;;5.70;1.33;;;19.70;8.80;;;;;;5005266;28;34302;-77
2022/05/28 06:20:54;;;;;;;2.78;1.40;;;19.60;9.10;;;;;;4972136;28;35750;-78
2022/05/28 06:23:21;;;;;;;3.78;1.40;;;19.50;8.90;;;;;;5003703;28;34221;-79
2022/05/28 06:25:49;;;;;;;2.80;1.20;;;19.40;9.60;;;;;;5002303;28;34219;-78
2022/05/28 06:28:15;;;;;;;5.97;1.35;;;19.30;8.90;;;;;;4986985;28;34139;-77
2022/05/28 06:30:44;;;;;;;3.95;1.80;;;19.20;8.80;;;;;;4972196;28;35889;-81
2022/05/28 06:33:12;;;;;;;3.97;1.52;;;19.50;8.80;;;;;;5001869;28;34272;-80
2022/05/28 06:35:38;;;;;;;2.65;1.58;;;19.70;8.60;;;;;;4988428;28;34170;-77
2022/05/28 06:38:05;;;;;;;4.35;1.50;;;20.10;8.30;;;;;;4988513;28;34285;-78
2022/05/28 06:40:31;;;;;;;3.63;1.20;;;20.50;8.10;;;;;;4994308;28;35610;-80
2022/05/28 06:42:58;;;;;;;3.47;1.50;;;20.90;7.90;;;;;;4969776;28;34250;-79
2022/05/28 06:45:24;;;;;;;4.53;1.40;;;20.90;7.20;;;;;;5004046;28;34224;-80
2022/05/28 06:47:51;;;;;;;3.67;1.50;;;20.70;7.10;;;;;;4997326;28;34503;-79
2022/05/28 06:53:03;;;;;;;4.07;1.55;;;20.20;7.20;;;;;;5007468;28;34458;-79
2022/05/28 06:55:28;;;;;;;3.70;1.42;;;19.90;7.50;;;;;;4995295;28;35585;-79
2022/05/28 06:57:54;;;;;;;4.53;1.70;;;19.60;7.70;;;;;;4975916;28;34195;-80
2022/05/28 07:00:21;;;;;;;3.35;1.52;;;19.30;8.20;;;;;;4988452;28;37298;-78
2022/05/28 07:02:47;;;;;;;4.30;1.55;;;19.40;8.10;;;;;;5005244;28;34187;-79
2022/05/28 07:05:15;;;;;;;3.78;1.65;;;19.60;8.40;;;;;;4972337;28;34181;-78
2022/05/28 07:07:42;;;;;;;2.65;1.45;;;20.00;8.40;;;;;;4976807;28;34146;-79
2022/05/28 07:10:09;;;;;;;2.92;1.30;;;20.40;8.60;;;;;;4985999;28;35846;-79
2022/05/28 07:12:37;;;;;;;3.70;1.58;;;20.70;8.30;;;;;;4980212;28;34162;-79
2022/05/28 07:15:05;;;;;;;9.25;1.58;;;20.70;8.20;;;;;;4992705;28;34423;-78
2022/05/28 07:17:32;;;;;;;2.67;1.55;;;20.50;8.00;;;;;;4998237;28;34475;-79
2022/05/28 07:19:59;;;;;;;5.97;1.95;;;20.30;8.40;;;;;;5000489;28;34476;-78
2022/05/28 07:22:26;;;;;;;3.20;1.77;;;20.30;8.90;;;;;;4986918;28;34484;-78
2022/05/28 07:24:53;;;;;;;2.80;1.27;;;20.30;8.80;;;;;;5011693;28;34272;-77
2022/05/28 07:27:20;;;;;;;5.28;2.00;;;19.90;8.70;;;;;;4974531;28;34170;-78
2022/05/28 07:29:47;;;;;;;4.03;1.30;;;19.80;9.20;;;;;;4970518;28;35936;-79
2022/05/28 07:32:14;;;;;;;4.18;1.85;;;19.90;9.00;;;;;;4982175;28;34519;-78
2022/05/28 07:34:40;;;;;;;3.30;1.58;;;20.00;8.70;;;;;;4980958;28;33760;-77
2022/05/28 07:37:08;;;;;;;4.22;1.63;;;20.00;8.90;;;;;;4984509;28;34283;-79
2022/05/28 07:39:34;;;;;;;5.35;1.67;;;20.20;8.30;;;;;;4981986;28;36734;-77
2022/05/28 07:42:03;;;;;;;5.85;1.88;;;20.10;8.40;;;;;;5015793;28;35125;-77
2022/05/28 07:44:29;;;;;;;5.57;1.90;;;20.00;7.80;;;;;;4987468;28;35687;-82
2022/05/28 07:46:55;;;;;;;7.72;1.88;;;19.80;8.60;;;;;;4987770;28;34371;-77
2022/05/28 07:49:21;;;;;;;7.10;1.80;;;19.80;8.70;;;;;;5008034;28;35563;-77
2022/05/28 07:51:48;;;;;;;4.47;1.63;;;20.10;8.70;;;;;;5021484;28;34308;-76
2022/05/28 07:54:16;;;;;;;4.50;1.83;;;20.10;8.60;;;;;;5007987;28;34458;-80
2022/05/28 07:56:42;;;;;;;5.53;1.70;;;20.10;8.30;;;;;;5003506;28;34232;-75
2022/05/28 07:59:08;;;;;;;4.38;2.05;;;19.90;8.50;;;;;;5005652;28;36324;-79
2022/05/28 08:01:36;;;;;;;5.35;1.67;;;19.60;8.60;;;;;;5005785;28;34260;-79
2022/05/28 08:04:03;;;;;;;4.50;1.50;;;19.50;8.90;;;;;;5007587;28;34331;-78
2022/05/28 08:06:31;;;;;;;4.78;1.67;;;19.30;9.10;;;;;;5025265;28;34113;-76
2022/05/28 08:08:59;;;;;;;3.92;1.50;;;19.10;9.30;;;;;;4999935;28;35990;-79
2022/05/28 08:11:26;;;;;;;8.38;2.33;;;18.90;9.40;;;;;;4990395;28;34151;-78
2022/05/28 08:13:53;;;;;;;6.00;1.67;;;18.60;9.40;;;;;;5006798;28;34291;-78
2022/05/28 08:16:19;;;;;;;7.30;1.67;;;18.50;9.00;;;;;;4996228;28;34723;-78
2022/05/28 08:18:45;;;;;;;7.18;2.00;;;18.30;9.90;;;;;;4986953;28;35782;-79
2022/05/28 08:23:53;;;;;;;3.85;1.67;;;18.20;10.20;;;;;;5012088;28;34852;-78
2022/05/28 08:26:21;;;;;;;5.05;1.90;;;18.30;10.50;;;;;;5000890;28;34399;-81
2022/05/28 08:28:52;;;;;;;7.47;1.50;;;18.30;10.30;;;;;;5002264;28;35534;-77
2022/05/28 08:31:19;;;;;;;6.13;1.70;;;18.30;9.70;;;;;;5001816;28;34189;-78
2022/05/28 08:33:45;;;;;;;7.25;1.55;;;18.40;10.00;;;;;;5014149;28;34387;-79
2022/05/28 08:36:12;;;;;;;5.57;1.58;;;18.70;9.70;;;;;;5001483;28;34415;-77
2022/05/28 08:38:39;;;;;;;6.93;1.80;;;18.90;9.40;;;;;;4988761;28;36783;-79
2022/05/28 08:41:14;;;;;;;4.18;1.58;;;19.10;9.40;;;;;;5003468;28;34190;-80
2022/05/28 08:44:10;;;;;;;6.68;1.58;;;19.20;8.80;;;;;;5019070;28;34483;-80
2022/05/28 08:46:37;;;;;;;5.18;1.70;;;19.30;7.30;;;;;;5003669;28;34514;-79
2022/05/28 08:49:05;;;;;;;5.38;1.50;;;19.50;8.90;;;;;;5003772;28;35804;-81
2022/05/28 08:51:48;;;;;;;6.78;1.63;;;19.80;8.70;;;;;;5003872;28;34345;-80
2022/05/28 08:54:36;;;;;;;9.82;1.80;;;19.80;5.50;;;;;;4999605;28;34285;-79
2022/05/28 08:57:11;;;;;;;5.22;1.50;;;20.00;6.60;;;;;;4999482;28;34621;-80
2022/05/28 08:59:46;;;;;;;2.83;1.35;;;20.20;6.40;;;;;;4973911;28;35812;-80
2022/05/28 09:02:22;;;;;;;7.95;1.30;;;20.10;7.20;;;;;;5016516;28;34237;-80
2022/05/28 09:04:50;;;;;;;6.18;1.30;;;20.10;7.30;;;;;;4990245;28;34211;-80
2022/05/28 09:07:18;;;;;;;4.35;1.30;;;20.10;7.70;;;;;;4999546;28;34348;-81
2022/05/28 09:09:48;;;;;;;3.47;1.30;;;20.00;7.90;;;;;;5013979;28;34489;-77
2022/05/28 09:12:19;;;;;;;5.03;1.10;;;20.20;6.20;;;;;;4986016;28;34242;-78
2022/05/28 09:14:45;;;;;;;2.55;1.00;;;20.60;6.20;;;;;;4979819;28;34324;-77
2022/05/28 09:17:32;;;;;;;2.67;0.80;;;21.00;6.80;;;;;;4995944;28;34591;-78
2022/05/28 09:20:06;;;;;;;4.57;0.90;;;21.40;2.00;;;;;;4996107;28;36002;-81
2022/05/28 09:22:33;;;;;;;1.88;0.70;;;21.70;4.90;;;;;;5000784;28;34189;-80
2022/05/28 09:24:59;;;;;;;1.50;0.77;;;21.70;6.10;;;;;;5000910;28;34581;-79
2022/05/28 09:28:00;;;;;;;1.92;0.70;;;21.60;6.10;;;;;;4997776;28;34483;-79
2022/05/28 09:30:50;;;;;;;2.60;0.90;;;21.30;1.70;;;;;;4992797;28;34374;-80
2022/05/28 09:33:51;;;;;;;3.05;1.00;;;21.20;3.30;;;;;;4997101;28;34228;-80
2022/05/28 09:36:48;;;;;;;3.05;0.90;;;21.40;4.40;;;;;;4993725;28;34449;-81
2022/05/28 09:39:38;;;;;;;2.60;0.70;;;21.50;2.00;;;;;;5024636;28;34225;-80
2022/05/28 09:42:24;;;;;;;1.63;0.70;;;21.40;2.10;;;;;;4981158;28;36577;-80
2022/05/28 09:45:08;;;;;;;2.30;0.60;;;21.20;1.40;;;;;;5001918;28;34320;-79
2022/05/28 09:47:52;;;;;;;0.57;0.57;;;21.10;1.00;;;;;;4981507;28;34280;-80
2022/05/28 09:50:23;;;;;;;2.92;0.60;;;20.90;1.10;;;;;;5002066;28;34158;-79
2022/05/28 09:55:52;;;;;;;1.52;0.68;;;20.70;2.40;;;;;;5003348;28;34195;-81
2022/05/28 09:58:21;;;;;;;2.80;0.60;;;20.60;3.10;;;;;;5023500;28;34252;-79
2022/05/28 10:00:49;;;;;;;1.23;0.70;;;20.50;4.60;;;;;;5021799;28;34059;-78
2022/05/28 10:06:14;;;;;;;1.20;0.73;;;20.90;2.90;;;;;;4994938;28;34785;-80
2022/05/28 10:08:41;;;;;;;2.58;0.60;;;21.30;2.10;;;;;;4995938;28;34997;-80
2022/05/28 10:11:12;;;;;;;1.27;0.63;;;21.60;3.90;;;;;;4994800;28;34313;-77
2022/05/28 10:13:47;;;;;;;1.27;0.43;;;21.80;3.50;;;;;;4985818;28;35509;-78
2022/05/28 10:16:20;;;;;;;3.70;1.00;;;22.10;1.00;;;;;;4997986;28;34123;-79
2022/05/28 10:19:02;;;;;;;1.45;0.60;;;21.90;2.20;;;;;;4988414;28;34209;-79
2022/05/28 10:21:32;;;;;;;2.13;0.68;;;21.70;1.00;;;;;;5001521;28;34227;-78
2022/05/28 10:24:03;;;;;;;2.63;0.60;;;21.50;2.00;;;;;;4981427;28;35694;-80
2022/05/28 10:26:44;;;;;;;2.42;0.70;;;21.40;2.10;;;;;;4999643;28;34254;-79
2022/05/28 10:29:38;;;;;;;2.50;0.65;;;21.40;1.00;;;;;;4997852;28;34183;-81
2022/05/28 10:32:23;;;;;;;1.92;0.60;;;21.30;1.00;;;;;;5018596;28;34272;-78
2022/05/28 10:34:59;;;;;;;0.75;0.50;;;21.70;2.50;;;;;;4992897;28;36120;-78
2022/05/28 10:37:25;;;;;;;1.23;0.57;;;22.20;1.00;;;;;;4987461;28;34398;-81
2022/05/28 10:40:05;;;;;;;3.22;0.70;;;22.70;2.50;;;;;;4988931;28;34323;-77
2022/05/28 10:42:31;;;;;;;3.35;0.90;;;23.30;1.00;;;;;;5016551;28;34324;-77
2022/05/28 10:44:58;;;;;;;2.80;0.90;;;23.30;1.20;;;;;;5000777;28;35777;-79
2022/05/28 10:47:48;;;;;;;1.70;0.70;;;23.10;1.50;;;;;;4996615;28;34426;-80
2022/05/28 10:50:26;;;;;;;0.77;0.50;;;22.70;1.00;;;;;;5006198;28;34551;-79
2022/05/28 10:53:19;;;;;;;2.55;0.70;;;22.50;1.00;;;;;;5001496;28;34471;-80
2022/05/28 10:56:00;;;;;;;3.45;0.80;;;22.30;1.00;;;;;;5007698;28;34607;-78
2022/05/28 10:58:56;;;;;;;1.02;0.60;;;22.10;1.00;;;;;;4998330;28;34209;-80
2022/05/28 11:01:49;;;;;;;1.10;0.50;;;21.90;1.00;;;;;;5007728;28;34035;-81
2022/05/28 11:04:50;;;;;;;3.28;0.70;;;21.80;1.00;;;;;;4992132;28;34669;-78
2022/05/28 11:07:37;;;;;;;1.15;0.65;;;21.70;1.00;;;;;;5001093;28;35412;-79
2022/05/28 11:10:24;;;;;;;2.78;0.73;;;21.60;1.20;;;;;;5001177;28;34171;-79
2022/05/28 11:13:04;;;;;;;4.38;0.82;;;21.50;1.00;;;;;;4998859;28;34419;-78
2022/05/28 11:15:52;;;;;;;2.25;0.80;;;21.50;1.00;;;;;;4984490;28;34222;-81
2022/05/28 11:18:41;;;;;;;1.13;0.70;;;21.40;1.00;;;;;;5010570;28;35645;-76
2022/05/28 11:21:36;;;;;;;6.38;0.80;;;21.40;1.00;;;;;;5003705;28;34490;-79
2022/05/28 11:24:29;;;;;;;1.42;0.50;;;21.40;1.00;;;;;;5000238;28;33822;-78
2022/05/28 11:27:15;;;;;;;2.78;0.75;;;21.50;1.70;;;;;;4984732;28;34328;-80
2022/05/28 11:29:49;;;;;;;0.98;0.70;;;21.70;1.00;;;;;;4981795;28;36404;-79
2022/05/28 11:32:22;;;;;;;1.70;0.85;;;21.70;1.00;;;;;;5004983;28;34411;-81
2022/05/28 11:34:55;;;;;;;0.90;0.57;;;21.80;1.80;;;;;;4988798;28;34762;-80
2022/05/28 11:37:33;;;;;;;2.97;0.80;;;22.00;1.20;;;;;;5013732;28;34085;-79
2022/05/28 11:40:12;;;;;;;1.55;0.65;;;22.10;1.00;;;;;;4996299;28;36110;-78
2022/05/28 11:43:03;;;;;;;3.35;0.80;;;22.10;1.00;;;;;;5005036;28;34242;-81
2022/05/28 11:45:49;;;;;;;2.47;0.77;;;22.00;1.00;;;;;;5004452;28;34417;-79
2022/05/28 11:51:32;;;;;;;2.33;0.90;;;21.90;1.00;;;;;;5015419;28;34276;-80
2022/05/28 11:54:07;;;;;;;5.50;1.00;;;21.80;2.30;;;;;;5000824;28;34119;-80
2022/05/28 11:56:33;;;;;;;1.65;0.70;;;21.80;1.40;;;;;;4989123;28;34163;-82
2022/05/28 11:59:13;;;;;;;2.00;0.85;;;21.80;2.40;;;;;;5002331;28;34549;-80
2022/05/28 12:01:52;;;;;;;4.40;1.10;;;21.70;1.00;;;;;;5001753;28;35940;-80
2022/05/28 12:04:19;;;;;;;1.88;0.80;;;21.50;1.20;;;;;;5000219;28;34164;-80
2022/05/28 12:07:00;;;;;;;1.13;0.70;;;21.40;2.60;;;;;;5006942;28;34168;-81
2022/05/28 12:09:32;;;;;;;3.40;0.90;;;21.50;1.50;;;;;;4987304;28;34083;-78
2022/05/28 12:12:24;;;;;;;1.48;0.80;;;21.90;1.70;;;;;;5002369;28;36698;-81
2022/05/28 12:15:24;;;;;;;0.80;0.60;;;22.40;1.00;;;;;;4990595;28;34293;-80
2022/05/28 12:18:00;;;;;;;1.50;0.40;;;22.90;1.00;;;;;;5008109;28;34269;-80
2022/05/28 12:20:30;;;;;;;3.00;0.75;;;23.10;1.00;;;;;;4996138;28;34089;-78
2022/05/28 12:23:00;;;;;;;3.22;0.70;;;23.10;1.00;;;;;;5019380;28;35763;-81
2022/05/28 12:25:35;;;;;;;3.08;0.90;;;22.90;1.00;;;;;;4978462;28;34776;-79
2022/05/28 12:28:08;;;;;;;1.70;0.70;;;22.50;1.00;;;;;;5019841;28;34231;-84
2022/05/28 12:30:48;;;;;;;2.15;0.80;;;22.20;1.00;;;;;;4998827;28;34682;-81
2022/05/28 12:33:32;;;;;;;0.63;0.52;;;22.00;1.00;;;;;;5012530;28;35865;-80
2022/05/28 12:36:33;;;;;;;1.80;0.65;;;22.00;1.00;;;;;;5039578;28;34573;-80
2022/05/28 12:39:29;;;;;;;0.80;0.57;;;22.10;1.00;;;;;;4992166;28;34382;-80
2022/05/28 12:41:59;;;;;;;1.52;0.68;;;22.10;1.00;;;;;;4995250;28;34011;-81
2022/05/28 12:44:26;;;;;;;7.35;0.88;;;22.00;1.10;;;;;;5008494;28;35677;-79
2022/05/28 12:46:56;;;;;;;1.20;0.68;;;22.00;1.40;;;;;;4980144;28;34197;-79
2022/05/28 12:49:33;;;;;;;0.70;0.70;;;22.00;1.40;;;;;;5004163;28;34446;-81
2022/05/28 12:52:30;;;;;;;0.90;0.75;;;22.00;1.00;;;;;;4993421;28;34608;-79
2022/05/28 12:55:19;;;;;;;1.55;0.43;;;21.90;1.00;;;;;;5001347;28;34470;-80
2022/05/28 12:57:59;;;;;;;1.85;0.60;;;21.80;1.00;;;;;;4996575;28;34115;-84
2022/05/28 13:00:28;;;;;;;0.93;0.30;;;21.70;1.00;;;;;;5008108;28;34890;-79
2022/05/28 13:02:57;;;;;;;1.60;0.60;;;21.60;1.40;;;;;;4993258;28;34832;-82
2022/05/28 13:05:42;;;;;;;0.70;0.52;;;21.40;1.50;;;;;;5010563;28;35502;-82
2022/05/28 13:08:17;;;;;;;0.57;0.47;;;21.30;1.00;;;;;;5004979;28;34599;-81
2022/05/28 13:10:49;;;;;;;0.80;0.50;;;21.20;1.00;;;;;;5008593;28;34137;-82
2022/05/28 13:13:42;;;;;;;1.33;0.68;;;21.20;1.00;;;;;;5003537;28;34324;-79
2022/05/28 13:16:39;;;;;;;1.15;0.50;;;21.00;1.00;;;;;;5014671;28;36529;-84
2022/05/28 13:19:32;;;;;;;0.45;0.45;;;21.00;1.00;;;;;;5010948;28;34325;-83
2022/05/28 13:22:08;;;;;;;0.88;0.50;;;20.90;1.00;;;;;;5014816;28;34576;-83
2022/05/28 13:25:09;;;;;;;1.75;0.80;;;20.90;1.00;;;;;;4999584;28;34312;-81
2022/05/28 13:28:04;;;;;;;2.45;0.57;;;21.10;1.00;;;;;;5010526;28;36299;-80
2022/05/28 13:30:36;;;;;;;1.77;0.50;;;21.70;1.00;;;;;;5010937;28;34346;-83
2022/05/28 13:33:10;;;;;;;1.25;0.60;;;22.10;1.00;;;;;;5009467;28;34344;-79
2022/05/28 13:35:46;;;;;;;1.40;0.70;;;22.50;1.00;;;;;;5006940;28;34230;-82